sensor_id;sensor_type;location;lat;lon;timestamp;pressure;altitude;pressure_sealevel;temperature;humidity
33185;BME280;19550;42.872;25.494;2023-02-10T00:01:01;98479.28;;;-13.42;91.22
33185;BME280;19550;42.872;25.494;2023-02-10T00:03:28;98467.53;;;-13.40;91.17
33185;BME280;19550;42.872;25.494;2023-02-10T00:05:55;98471.66;;;-13.36;91.98
33185;BME280;19550;42.872;25.494;2023-02-10T00:08:24;98465.22;;;-13.33;92.37
33185;BME280;19550;42.872;25.494;2023-02-10T00:10:50;98471.19;;;-13.18;92.34
33185;BME280;19550;42.872;25.494;2023-02-10T00:13:17;98464.88;;;-13.17;92.24
33185;BME280;19550;42.872;25.494;2023-02-10T00:15:44;98465.94;;;-13.20;91.76
33185;BME280;19550;42.872;25.494;2023-02-10T00:18:11;98474.31;;;-13.36;91.86
33185;BME280;19550;42.872;25.494;2023-02-10T00:20:38;98457.97;;;-13.31;91.58
33185;BME280;19550;42.872;25.494;2023-02-10T00:23:05;98461.72;;;-13.45;90.70
33185;BME280;19550;42.872;25.494;2023-02-10T00:25:34;98447.16;;;-13.41;90.86
33185;BME280;19550;42.872;25.494;2023-02-10T00:28:01;98450.31;;;-13.58;89.89
33185;BME280;19550;42.872;25.494;2023-02-10T00:30:28;98444.75;;;-13.66;90.23
33185;BME280;19550;42.872;25.494;2023-02-10T00:32:55;98443.66;;;-13.63;91.25
33185;BME280;19550;42.872;25.494;2023-02-10T00:35:22;98440.09;;;-13.86;91.04
33185;BME280;19550;42.872;25.494;2023-02-10T00:37:49;98436.16;;;-13.70;91.06
33185;BME280;19550;42.872;25.494;2023-02-10T00:40:16;98440.00;;;-13.85;92.28
33185;BME280;19550;42.872;25.494;2023-02-10T00:42:45;98425.56;;;-13.82;92.01
33185;BME280;19550;42.872;25.494;2023-02-10T00:45:12;98440.47;;;-13.69;92.51
33185;BME280;19550;42.872;25.494;2023-02-10T00:47:39;98430.44;;;-13.76;92.06
33185;BME280;19550;42.872;25.494;2023-02-10T00:50:06;98436.38;;;-13.84;91.89
33185;BME280;19550;42.872;25.494;2023-02-10T00:52:33;98431.38;;;-13.99;89.83
33185;BME280;19550;42.872;25.494;2023-02-10T00:55:00;98421.75;;;-14.13;89.94
33185;BME280;19550;42.872;25.494;2023-02-10T00:57:27;98428.63;;;-14.22;90.65
33185;BME280;19550;42.872;25.494;2023-02-10T00:59:55;98407.06;;;-14.41;90.48
33185;BME280;19550;42.872;25.494;2023-02-10T01:02:22;98413.28;;;-14.29;91.89
33185;BME280;19550;42.872;25.494;2023-02-10T01:04:49;98423.84;;;-14.05;93.10
33185;BME280;19550;42.872;25.494;2023-02-10T01:07:16;98429.91;;;-14.03;92.91
33185;BME280;19550;42.872;25.494;2023-02-10T01:09:43;98427.47;;;-13.95;92.51
33185;BME280;19550;42.872;25.494;2023-02-10T01:12:10;98435.84;;;-13.89;92.16
33185;BME280;19550;42.872;25.494;2023-02-10T01:14:36;98431.75;;;-13.82;91.63
33185;BME280;19550;42.872;25.494;2023-02-10T01:17:05;98419.47;;;-14.06;90.38
33185;BME280;19550;42.872;25.494;2023-02-10T01:19:32;98431.75;;;-14.28;90.35
33185;BME280;19550;42.872;25.494;2023-02-10T01:21:58;98430.66;;;-14.36;91.12
33185;BME280;19550;42.872;25.494;2023-02-10T01:24:25;98429.63;;;-14.23;91.47
33185;BME280;19550;42.872;25.494;2023-02-10T01:26:52;98416.06;;;-14.09;91.32
33185;BME280;19550;42.872;25.494;2023-02-10T01:29:19;98422.94;;;-14.28;92.05
33185;BME280;19550;42.872;25.494;2023-02-10T01:31:46;98422.69;;;-14.36;92.37
33185;BME280;19550;42.872;25.494;2023-02-10T01:34:14;98425.00;;;-14.32;92.62
33185;BME280;19550;42.872;25.494;2023-02-10T01:36:41;98433.47;;;-14.38;91.14
33185;BME280;19550;42.872;25.494;2023-02-10T01:39:08;98429.81;;;-14.37;91.69
33185;BME280;19550;42.872;25.494;2023-02-10T01:41:34;98420.72;;;-14.34;90.74
33185;BME280;19550;42.872;25.494;2023-02-10T01:44:04;98419.16;;;-14.48;91.17
33185;BME280;19550;42.872;25.494;2023-02-10T01:46:32;98418.69;;;-14.42;90.79
33185;BME280;19550;42.872;25.494;2023-02-10T01:49:02;98418.03;;;-14.57;90.03
33185;BME280;19550;42.872;25.494;2023-02-10T01:51:37;98426.13;;;-14.58;92.00
33185;BME280;19550;42.872;25.494;2023-02-10T01:54:07;98428.84;;;-14.36;91.96
33185;BME280;19550;42.872;25.494;2023-02-10T01:56:36;98427.66;;;-14.43;91.27
33185;BME280;19550;42.872;25.494;2023-02-10T01:59:03;98422.22;;;-14.30;91.66
33185;BME280;19550;42.872;25.494;2023-02-10T02:01:30;98411.00;;;-14.23;91.27
33185;BME280;19550;42.872;25.494;2023-02-10T02:03:58;98416.25;;;-14.45;90.23
33185;BME280;19550;42.872;25.494;2023-02-10T02:06:25;98414.34;;;-14.43;90.49
33185;BME280;19550;42.872;25.494;2023-02-10T02:08:53;98427.84;;;-14.57;90.17
33185;BME280;19550;42.872;25.494;2023-02-10T02:11:24;98409.16;;;-14.68;90.20
33185;BME280;19550;42.872;25.494;2023-02-10T02:14:01;98411.63;;;-14.54;90.60
33185;BME280;19550;42.872;25.494;2023-02-10T02:16:40;98410.53;;;-14.63;90.79
33185;BME280;19550;42.872;25.494;2023-02-10T02:19:26;98413.97;;;-14.27;91.35
33185;BME280;19550;42.872;25.494;2023-02-10T02:22:27;98395.84;;;-14.22;89.75
33185;BME280;19550;42.872;25.494;2023-02-10T02:25:12;98404.81;;;-14.23;90.40
33185;BME280;19550;42.872;25.494;2023-02-10T02:27:56;98411.91;;;-14.35;89.79
33185;BME280;19550;42.872;25.494;2023-02-10T02:30:44;98404.44;;;-14.30;90.04
33185;BME280;19550;42.872;25.494;2023-02-10T02:33:16;98407.31;;;-14.33;90.29
33185;BME280;19550;42.872;25.494;2023-02-10T02:35:52;98410.09;;;-14.45;90.12
33185;BME280;19550;42.872;25.494;2023-02-10T02:38:20;98385.72;;;-14.63;89.66
33185;BME280;19550;42.872;25.494;2023-02-10T02:40:48;98400.91;;;-14.41;89.71
33185;BME280;19550;42.872;25.494;2023-02-10T02:43:14;98410.75;;;-14.89;87.65
33185;BME280;19550;42.872;25.494;2023-02-10T02:45:48;98397.16;;;-14.74;89.28
33185;BME280;19550;42.872;25.494;2023-02-10T02:51:12;98398.66;;;-14.59;90.01
33185;BME280;19550;42.872;25.494;2023-02-10T02:53:46;98397.78;;;-14.70;89.66
33185;BME280;19550;42.872;25.494;2023-02-10T02:56:23;98398.03;;;-14.62;90.44
33185;BME280;19550;42.872;25.494;2023-02-10T02:58:56;98400.47;;;-14.59;90.27
33185;BME280;19550;42.872;25.494;2023-02-10T03:01:31;98403.19;;;-14.48;89.72
33185;BME280;19550;42.872;25.494;2023-02-10T03:04:02;98399.03;;;-14.63;89.46
33185;BME280;19550;42.872;25.494;2023-02-10T03:06:30;98389.72;;;-14.58;89.53
33185;BME280;19550;42.872;25.494;2023-02-10T03:08:57;98389.09;;;-14.61;89.02
33185;BME280;19550;42.872;25.494;2023-02-10T03:11:24;98383.91;;;-14.63;89.09
33185;BME280;19550;42.872;25.494;2023-02-10T03:13:51;98384.47;;;-14.70;90.05
33185;BME280;19550;42.872;25.494;2023-02-10T03:16:18;98381.97;;;-14.61;89.22
33185;BME280;19550;42.872;25.494;2023-02-10T03:18:44;98377.97;;;-14.66;89.38
33185;BME280;19550;42.872;25.494;2023-02-10T03:21:13;98376.81;;;-14.75;88.59
33185;BME280;19550;42.872;25.494;2023-02-10T03:23:39;98384.88;;;-14.87;89.25
33185;BME280;19550;42.872;25.494;2023-02-10T03:26:06;98389.97;;;-14.84;89.99
33185;BME280;19550;42.872;25.494;2023-02-10T03:28:33;98377.16;;;-14.91;89.56
33185;BME280;19550;42.872;25.494;2023-02-10T03:31:02;98376.28;;;-14.91;89.59
33185;BME280;19550;42.872;25.494;2023-02-10T03:33:29;98369.09;;;-14.78;89.73
33185;BME280;19550;42.872;25.494;2023-02-10T03:35:56;98368.63;;;-14.72;89.31
33185;BME280;19550;42.872;25.494;2023-02-10T03:38:26;98357.88;;;-14.94;87.71
33185;BME280;19550;42.872;25.494;2023-02-10T03:40:53;98348.13;;;-15.17;89.07
33185;BME280;19550;42.872;25.494;2023-02-10T03:43:21;98356.44;;;-14.98;89.72
33185;BME280;19550;42.872;25.494;2023-02-10T03:45:48;98343.53;;;-14.92;89.62
33185;BME280;19550;42.872;25.494;2023-02-10T03:48:15;98342.47;;;-14.89;89.63
33185;BME280;19550;42.872;25.494;2023-02-10T03:50:42;98344.84;;;-14.97;88.83
33185;BME280;19550;42.872;25.494;2023-02-10T03:53:09;98340.75;;;-14.90;88.90
33185;BME280;19550;42.872;25.494;2023-02-10T03:55:37;98340.47;;;-15.22;88.24
33185;BME280;19550;42.872;25.494;2023-02-10T03:58:04;98336.63;;;-15.18;88.71
33185;BME280;19550;42.872;25.494;2023-02-10T04:00:32;98340.03;;;-15.16;89.86
33185;BME280;19550;42.872;25.494;2023-02-10T04:02:59;98334.19;;;-14.97;89.54
33185;BME280;19550;42.872;25.494;2023-02-10T04:05:26;98332.47;;;-15.09;89.64
33185;BME280;19550;42.872;25.494;2023-02-10T04:07:52;98332.78;;;-15.14;90.02
33185;BME280;19550;42.872;25.494;2023-02-10T04:10:19;98329.41;;;-15.16;89.41
33185;BME280;19550;42.872;25.494;2023-02-10T04:12:48;98324.13;;;-15.28;88.98
33185;BME280;19550;42.872;25.494;2023-02-10T04:15:16;98334.03;;;-15.54;88.83
33185;BME280;19550;42.872;25.494;2023-02-10T04:17:43;98328.53;;;-15.40;89.54
33185;BME280;19550;42.872;25.494;2023-02-10T04:20:10;98331.50;;;-15.32;89.59
33185;BME280;19550;42.872;25.494;2023-02-10T04:22:37;98325.22;;;-15.31;89.47
33185;BME280;19550;42.872;25.494;2023-02-10T04:25:05;98328.44;;;-15.39;89.63
33185;BME280;19550;42.872;25.494;2023-02-10T04:27:32;98326.22;;;-15.21;90.02
33185;BME280;19550;42.872;25.494;2023-02-10T04:30:00;98328.16;;;-15.23;89.72
33185;BME280;19550;42.872;25.494;2023-02-10T04:32:27;98319.25;;;-15.35;88.45
33185;BME280;19550;42.872;25.494;2023-02-10T04:34:54;98326.44;;;-15.48;87.56
33185;BME280;19550;42.872;25.494;2023-02-10T04:37:21;98324.94;;;-15.63;87.84
33185;BME280;19550;42.872;25.494;2023-02-10T04:39:48;98325.72;;;-15.50;88.86
33185;BME280;19550;42.872;25.494;2023-02-10T04:42:14;98314.69;;;-15.33;88.32
33185;BME280;19550;42.872;25.494;2023-02-10T04:44:41;98308.75;;;-15.36;89.82
33185;BME280;19550;42.872;25.494;2023-02-10T04:47:10;98314.94;;;-15.36;89.41
33185;BME280;19550;42.872;25.494;2023-02-10T04:49:36;98301.75;;;-15.37;89.15
33185;BME280;19550;42.872;25.494;2023-02-10T04:52:03;98319.41;;;-15.36;89.99
33185;BME280;19550;42.872;25.494;2023-02-10T04:54:30;98304.41;;;-15.37;89.17
33185;BME280;19550;42.872;25.494;2023-02-10T04:56:57;98327.41;;;-15.25;88.99
33185;BME280;19550;42.872;25.494;2023-02-10T04:59:24;98326.13;;;-15.43;88.29
33185;BME280;19550;42.872;25.494;2023-02-10T05:01:50;98312.88;;;-15.32;88.58
33185;BME280;19550;42.872;25.494;2023-02-10T05:04:19;98310.72;;;-15.27;88.65
33185;BME280;19550;42.872;25.494;2023-02-10T05:06:45;98316.69;;;-15.23;88.15
33185;BME280;19550;42.872;25.494;2023-02-10T05:09:12;98317.81;;;-15.39;88.29
33185;BME280;19550;42.872;25.494;2023-02-10T05:11:39;98318.03;;;-15.65;87.59
33185;BME280;19550;42.872;25.494;2023-02-10T05:14:06;98317.13;;;-15.77;88.00
33185;BME280;19550;42.872;25.494;2023-02-10T05:16:33;98323.53;;;-15.56;89.21
33185;BME280;19550;42.872;25.494;2023-02-10T05:19:00;98328.44;;;-15.39;89.04
33185;BME280;19550;42.872;25.494;2023-02-10T05:21:28;98327.38;;;-15.36;88.90
33185;BME280;19550;42.872;25.494;2023-02-10T05:23:57;98334.34;;;-15.35;88.95
33185;BME280;19550;42.872;25.494;2023-02-10T05:26:24;98337.00;;;-15.35;88.10
33185;BME280;19550;42.872;25.494;2023-02-10T05:28:50;98344.88;;;-15.34;88.55
33185;BME280;19550;42.872;25.494;2023-02-10T05:31:17;98346.22;;;-15.28;88.39
33185;BME280;19550;42.872;25.494;2023-02-10T05:33:44;98350.34;;;-15.48;87.99
33185;BME280;19550;42.872;25.494;2023-02-10T05:36:11;98343.72;;;-15.53;87.70
33185;BME280;19550;42.872;25.494;2023-02-10T05:38:40;98358.22;;;-15.46;87.60
33185;BME280;19550;42.872;25.494;2023-02-10T05:41:28;98355.44;;;-15.45;88.80
33185;BME280;19550;42.872;25.494;2023-02-10T05:43:56;98349.03;;;-15.53;88.54
33185;BME280;19550;42.872;25.494;2023-02-10T05:46:24;98348.88;;;-15.52;88.04
33185;BME280;19550;42.872;25.494;2023-02-10T05:48:51;98346.06;;;-15.38;88.65
33185;BME280;19550;42.872;25.494;2023-02-10T05:51:18;98348.84;;;-15.39;87.60
33185;BME280;19550;42.872;25.494;2023-02-10T05:53:49;98349.25;;;-15.56;87.30
33185;BME280;19550;42.872;25.494;2023-02-10T05:56:18;98348.31;;;-15.55;86.96
33185;BME280;19550;42.872;25.494;2023-02-10T05:58:48;98342.56;;;-15.62;88.21
33185;BME280;19550;42.872;25.494;2023-02-10T06:01:15;98347.53;;;-15.34;88.93
33185;BME280;19550;42.872;25.494;2023-02-10T06:03:42;98338.91;;;-15.24;89.35
33185;BME280;19550;42.872;25.494;2023-02-10T06:06:09;98340.69;;;-15.01;90.14
33185;BME280;19550;42.872;25.494;2023-02-10T06:08:36;98338.66;;;-14.98;90.12
33185;BME280;19550;42.872;25.494;2023-02-10T06:11:05;98344.66;;;-14.83;90.01
33185;BME280;19550;42.872;25.494;2023-02-10T06:13:32;98342.81;;;-14.47;90.84
33185;BME280;19550;42.872;25.494;2023-02-10T06:15:58;98336.16;;;-14.31;90.91
33185;BME280;19550;42.872;25.494;2023-02-10T06:18:27;98338.34;;;-14.02;90.42
33185;BME280;19550;42.872;25.494;2023-02-10T06:20:54;98337.28;;;-13.78;90.75
33185;BME280;19550;42.872;25.494;2023-02-10T06:23:21;98340.53;;;-13.52;90.64
33185;BME280;19550;42.872;25.494;2023-02-10T06:25:49;98339.31;;;-13.37;89.67
33185;BME280;19550;42.872;25.494;2023-02-10T06:28:21;98339.31;;;-13.37;89.20
33185;BME280;19550;42.872;25.494;2023-02-10T06:30:48;98327.13;;;-13.18;88.65
33185;BME280;19550;42.872;25.494;2023-02-10T06:33:15;98346.53;;;-12.96;87.88
33185;BME280;19550;42.872;25.494;2023-02-10T06:35:42;98348.56;;;-12.77;87.32
33185;BME280;19550;42.872;25.494;2023-02-10T06:38:09;98343.16;;;-12.66;87.67
33185;BME280;19550;42.872;25.494;2023-02-10T06:40:36;98343.81;;;-12.53;87.34
33185;BME280;19550;42.872;25.494;2023-02-10T06:43:03;98345.13;;;-12.26;86.91
33185;BME280;19550;42.872;25.494;2023-02-10T06:45:32;98348.97;;;-12.19;86.45
33185;BME280;19550;42.872;25.494;2023-02-10T06:48:00;98355.69;;;-12.04;86.29
33185;BME280;19550;42.872;25.494;2023-02-10T06:50:27;98357.88;;;-11.88;86.13
33185;BME280;19550;42.872;25.494;2023-02-10T06:52:54;98363.75;;;-11.64;85.18
33185;BME280;19550;42.872;25.494;2023-02-10T06:55:21;98362.75;;;-11.63;85.52
33185;BME280;19550;42.872;25.494;2023-02-10T06:57:48;98364.81;;;-11.36;85.28
33185;BME280;19550;42.872;25.494;2023-02-10T07:00:15;98366.69;;;-11.27;85.30
33185;BME280;19550;42.872;25.494;2023-02-10T07:02:43;98364.31;;;-11.20;84.93
33185;BME280;19550;42.872;25.494;2023-02-10T07:05:11;98358.41;;;-11.14;84.79
33185;BME280;19550;42.872;25.494;2023-02-10T07:07:38;98357.78;;;-10.97;84.25
33185;BME280;19550;42.872;25.494;2023-02-10T07:10:06;98364.28;;;-10.71;83.16
33185;BME280;19550;42.872;25.494;2023-02-10T07:12:33;98359.22;;;-10.64;82.80
33185;BME280;19550;42.872;25.494;2023-02-10T07:15:00;98359.22;;;-10.64;83.34
33185;BME280;19550;42.872;25.494;2023-02-10T07:17:27;98358.94;;;-10.32;83.55
33185;BME280;19550;42.872;25.494;2023-02-10T07:19:55;98364.78;;;-10.10;82.65
33185;BME280;19550;42.872;25.494;2023-02-10T07:22:22;98354.22;;;-10.11;82.00
33185;BME280;19550;42.872;25.494;2023-02-10T07:24:49;98354.72;;;-9.88;82.92
33185;BME280;19550;42.872;25.494;2023-02-10T07:27:16;98366.44;;;-9.89;83.11
33185;BME280;19550;42.872;25.494;2023-02-10T07:29:43;98365.19;;;-9.39;82.36
33185;BME280;19550;42.872;25.494;2023-02-10T07:32:10;98363.00;;;-9.26;82.96
33185;BME280;19550;42.872;25.494;2023-02-10T07:34:37;98376.56;;;-9.27;81.86
33185;BME280;19550;42.872;25.494;2023-02-10T07:37:07;98367.03;;;-8.85;81.92
33185;BME280;19550;42.872;25.494;2023-02-10T07:39:34;98356.56;;;-8.70;82.12
33185;BME280;19550;42.872;25.494;2023-02-10T07:42:01;98363.34;;;-8.66;82.21
33185;BME280;19550;42.872;25.494;2023-02-10T07:44:28;98369.44;;;-8.46;82.07
33185;BME280;19550;42.872;25.494;2023-02-10T07:46:55;98356.56;;;-8.17;82.41
33185;BME280;19550;42.872;25.494;2023-02-10T07:49:22;98356.47;;;-8.07;81.42
33185;BME280;19550;42.872;25.494;2023-02-10T07:51:49;98361.88;;;-7.81;79.86
33185;BME280;19550;42.872;25.494;2023-02-10T07:54:18;98355.38;;;-7.96;82.20
33185;BME280;19550;42.872;25.494;2023-02-10T07:56:45;98361.69;;;-7.62;81.58
33185;BME280;19550;42.872;25.494;2023-02-10T07:59:11;98350.81;;;-7.52;80.49
33185;BME280;19550;42.872;25.494;2023-02-10T08:01:39;98355.44;;;-7.37;80.54
33185;BME280;19550;42.872;25.494;2023-02-10T08:04:08;98347.38;;;-6.95;79.69
33185;BME280;19550;42.872;25.494;2023-02-10T08:06:35;98346.97;;;-6.58;81.16
33185;BME280;19550;42.872;25.494;2023-02-10T08:09:02;98349.50;;;-6.64;79.15
33185;BME280;19550;42.872;25.494;2023-02-10T08:11:31;98350.56;;;-6.41;78.67
33185;BME280;19550;42.872;25.494;2023-02-10T08:13:58;98347.72;;;-6.15;79.49
33185;BME280;19550;42.872;25.494;2023-02-10T08:16:24;98339.13;;;-6.03;78.47
33185;BME280;19550;42.872;25.494;2023-02-10T08:18:51;98340.44;;;-5.82;78.05
33185;BME280;19550;42.872;25.494;2023-02-10T08:21:18;98333.69;;;-5.70;78.91
33185;BME280;19550;42.872;25.494;2023-02-10T08:23:45;98335.69;;;-5.56;79.79
33185;BME280;19550;42.872;25.494;2023-02-10T08:26:12;98334.94;;;-5.26;78.13
33185;BME280;19550;42.872;25.494;2023-02-10T08:28:40;98332.00;;;-4.69;77.72
33185;BME280;19550;42.872;25.494;2023-02-10T08:31:08;98338.66;;;-4.49;76.84
33185;BME280;19550;42.872;25.494;2023-02-10T08:33:36;98339.38;;;-4.55;77.38
33185;BME280;19550;42.872;25.494;2023-02-10T08:36:05;98336.66;;;-4.01;76.55
33185;BME280;19550;42.872;25.494;2023-02-10T08:38:32;98328.25;;;-3.91;75.61
33185;BME280;19550;42.872;25.494;2023-02-10T08:40:59;98339.47;;;-3.94;76.55
33185;BME280;19550;42.872;25.494;2023-02-10T08:43:26;98334.97;;;-3.65;76.69
33185;BME280;19550;42.872;25.494;2023-02-10T08:45:56;98324.09;;;-3.42;76.69
33185;BME280;19550;42.872;25.494;2023-02-10T08:48:23;98327.72;;;-3.05;75.45
33185;BME280;19550;42.872;25.494;2023-02-10T08:50:50;98316.28;;;-2.71;74.71
33185;BME280;19550;42.872;25.494;2023-02-10T08:53:18;98326.63;;;-2.46;75.01
33185;BME280;19550;42.872;25.494;2023-02-10T08:55:54;98308.25;;;-2.29;73.65
33185;BME280;19550;42.872;25.494;2023-02-10T08:58:22;98304.44;;;-1.92;75.87
33185;BME280;19550;42.872;25.494;2023-02-10T09:00:48;98307.38;;;-1.66;75.35
33185;BME280;19550;42.872;25.494;2023-02-10T09:03:17;98292.47;;;-1.48;75.71
33185;BME280;19550;42.872;25.494;2023-02-10T09:05:44;98300.22;;;-1.17;76.14
33185;BME280;19550;42.872;25.494;2023-02-10T09:08:11;98287.22;;;-1.22;77.88
33185;BME280;19550;42.872;25.494;2023-02-10T09:10:38;98284.72;;;-1.17;76.22
33185;BME280;19550;42.872;25.494;2023-02-10T09:13:05;98280.00;;;-0.61;72.62
33185;BME280;19550;42.872;25.494;2023-02-10T09:15:35;98292.56;;;-0.53;70.04
33185;BME280;19550;42.872;25.494;2023-02-10T09:18:02;98288.81;;;-0.52;72.23
33185;BME280;19550;42.872;25.494;2023-02-10T09:20:31;98289.34;;;-0.16;70.91
33185;BME280;19550;42.872;25.494;2023-02-10T09:22:58;98290.44;;;0.10;68.99
33185;BME280;19550;42.872;25.494;2023-02-10T09:25:24;98289.63;;;0.49;68.90
33185;BME280;19550;42.872;25.494;2023-02-10T09:27:51;98279.75;;;0.61;61.01
33185;BME280;19550;42.872;25.494;2023-02-10T09:30:20;98281.00;;;0.78;60.95
33185;BME280;19550;42.872;25.494;2023-02-10T09:32:47;98269.22;;;0.91;63.72
33185;BME280;19550;42.872;25.494;2023-02-10T09:35:14;98268.31;;;1.10;61.62
33185;BME280;19550;42.872;25.494;2023-02-10T09:37:42;98262.44;;;1.19;62.80
33185;BME280;19550;42.872;25.494;2023-02-10T09:40:13;98269.50;;;1.27;62.50
33185;BME280;19550;42.872;25.494;2023-02-10T09:42:52;98272.41;;;1.45;63.64
33185;BME280;19550;42.872;25.494;2023-02-10T09:45:26;98257.22;;;1.56;64.01
33185;BME280;19550;42.872;25.494;2023-02-10T09:48:00;98252.44;;;1.45;63.39
33185;BME280;19550;42.872;25.494;2023-02-10T09:50:50;98249.47;;;1.46;64.13
33185;BME280;19550;42.872;25.494;2023-02-10T09:53:21;98234.31;;;1.57;62.97
33185;BME280;19550;42.872;25.494;2023-02-10T09:55:54;98237.69;;;2.15;63.62
33185;BME280;19550;42.872;25.494;2023-02-10T09:58:28;98239.22;;;2.36;66.53
33185;BME280;19550;42.872;25.494;2023-02-10T10:00:59;98238.34;;;2.42;65.42
33185;BME280;19550;42.872;25.494;2023-02-10T10:03:34;98223.91;;;2.28;64.77
33185;BME280;19550;42.872;25.494;2023-02-10T10:06:10;98229.06;;;2.18;63.71
33185;BME280;19550;42.872;25.494;2023-02-10T10:08:47;98223.88;;;2.35;64.15
33185;BME280;19550;42.872;25.494;2023-02-10T10:11:23;98227.53;;;1.66;64.18
33185;BME280;19550;42.872;25.494;2023-02-10T10:13:51;98221.44;;;1.95;64.71
33185;BME280;19550;42.872;25.494;2023-02-10T10:16:24;98227.50;;;2.29;62.86
33185;BME280;19550;42.872;25.494;2023-02-10T10:19:01;98215.88;;;2.33;62.47
33185;BME280;19550;42.872;25.494;2023-02-10T10:21:38;98214.84;;;2.77;61.53
33185;BME280;19550;42.872;25.494;2023-02-10T10:24:21;98210.28;;;3.08;62.28
33185;BME280;19550;42.872;25.494;2023-02-10T10:27:01;98214.28;;;3.42;62.65
33185;BME280;19550;42.872;25.494;2023-02-10T10:29:39;98201.25;;;3.55;65.91
33185;BME280;19550;42.872;25.494;2023-02-10T10:32:13;98205.00;;;3.43;63.12
33185;BME280;19550;42.872;25.494;2023-02-10T10:34:43;98205.00;;;3.43;62.04
33185;BME280;19550;42.872;25.494;2023-02-10T10:37:15;98199.72;;;3.59;61.69
33185;BME280;19550;42.872;25.494;2023-02-10T10:39:46;98201.44;;;3.42;60.83
33185;BME280;19550;42.872;25.494;2023-02-10T10:42:20;98188.94;;;3.76;63.76
33185;BME280;19550;42.872;25.494;2023-02-10T10:44:49;98193.19;;;4.02;61.26
33185;BME280;19550;42.872;25.494;2023-02-10T10:47:20;98192.84;;;3.98;61.18
33185;BME280;19550;42.872;25.494;2023-02-10T10:49:48;98192.97;;;4.15;60.90
33185;BME280;19550;42.872;25.494;2023-02-10T10:52:33;98188.78;;;4.13;59.73
33185;BME280;19550;42.872;25.494;2023-02-10T10:55:07;98191.72;;;3.88;60.93
33185;BME280;19550;42.872;25.494;2023-02-10T10:57:35;98191.91;;;4.16;60.94
33185;BME280;19550;42.872;25.494;2023-02-10T11:00:13;98192.63;;;4.23;61.45
33185;BME280;19550;42.872;25.494;2023-02-10T11:02:54;98183.69;;;4.39;62.41
33185;BME280;19550;42.872;25.494;2023-02-10T11:05:23;98183.28;;;4.13;62.05
33185;BME280;19550;42.872;25.494;2023-02-10T11:07:52;98187.59;;;4.20;61.24
33185;BME280;19550;42.872;25.494;2023-02-10T11:10:27;98185.03;;;4.49;62.08
33185;BME280;19550;42.872;25.494;2023-02-10T11:12:55;98168.56;;;4.37;60.58
33185;BME280;19550;42.872;25.494;2023-02-10T11:15:37;98166.94;;;4.06;64.37
33185;BME280;19550;42.872;25.494;2023-02-10T11:18:06;98167.66;;;4.13;64.55
33185;BME280;19550;42.872;25.494;2023-02-10T11:20:35;98161.84;;;4.33;62.29
33185;BME280;19550;42.872;25.494;2023-02-10T11:23:10;98156.84;;;4.53;60.19
33185;BME280;19550;42.872;25.494;2023-02-10T11:25:40;98148.25;;;4.61;62.98
33185;BME280;19550;42.872;25.494;2023-02-10T11:28:16;98140.38;;;4.18;64.48
33185;BME280;19550;42.872;25.494;2023-02-10T11:30:46;98153.25;;;4.18;64.27
33185;BME280;19550;42.872;25.494;2023-02-10T11:33:19;98151.47;;;4.35;64.32
33185;BME280;19550;42.872;25.494;2023-02-10T11:35:49;98140.94;;;4.67;62.17
33185;BME280;19550;42.872;25.494;2023-02-10T11:38:19;98133.91;;;4.48;64.57
33185;BME280;19550;42.872;25.494;2023-02-10T11:40:51;98132.09;;;4.07;62.21
33185;BME280;19550;42.872;25.494;2023-02-10T11:43:19;98118.03;;;4.26;64.57
33185;BME280;19550;42.872;25.494;2023-02-10T11:45:52;98123.19;;;4.58;61.71
33185;BME280;19550;42.872;25.494;2023-02-10T11:48:21;98126.53;;;4.48;62.13
33185;BME280;19550;42.872;25.494;2023-02-10T11:51:00;98133.91;;;4.59;60.14
33185;BME280;19550;42.872;25.494;2023-02-10T11:53:30;98130.34;;;4.47;64.13
33185;BME280;19550;42.872;25.494;2023-02-10T11:56:01;98122.78;;;4.89;59.94
33185;BME280;19550;42.872;25.494;2023-02-10T11:58:44;98121.09;;;4.88;61.91
33185;BME280;19550;42.872;25.494;2023-02-10T12:01:46;98127.03;;;4.45;64.73
33185;BME280;19550;42.872;25.494;2023-02-10T12:04:29;98119.09;;;4.60;62.61
33185;BME280;19550;42.872;25.494;2023-02-10T12:07:05;98121.97;;;4.65;62.01
33185;BME280;19550;42.872;25.494;2023-02-10T12:09:40;98117.69;;;4.46;63.55
33185;BME280;19550;42.872;25.494;2023-02-10T12:12:18;98112.91;;;4.53;63.92
33185;BME280;19550;42.872;25.494;2023-02-10T12:14:55;98114.94;;;4.58;62.50
33185;BME280;19550;42.872;25.494;2023-02-10T12:17:26;98108.63;;;4.57;63.70
33185;BME280;19550;42.872;25.494;2023-02-10T12:20:03;98110.53;;;4.22;65.63
33185;BME280;19550;42.872;25.494;2023-02-10T12:22:44;98107.28;;;4.02;66.37
33185;BME280;19550;42.872;25.494;2023-02-10T12:25:19;98106.19;;;3.79;67.73
33185;BME280;19550;42.872;25.494;2023-02-10T12:27:55;98107.88;;;3.39;69.11
33185;BME280;19550;42.872;25.494;2023-02-10T12:30:34;98104.09;;;2.92;68.05
33185;BME280;19550;42.872;25.494;2023-02-10T12:33:16;98095.44;;;2.76;69.64
33185;BME280;19550;42.872;25.494;2023-02-10T12:35:50;98095.75;;;2.50;69.99
33185;BME280;19550;42.872;25.494;2023-02-10T12:38:33;98103.75;;;2.27;73.28
33185;BME280;19550;42.872;25.494;2023-02-10T12:41:09;98096.00;;;2.06;73.83
33185;BME280;19550;42.872;25.494;2023-02-10T12:43:55;98096.44;;;1.78;74.86
33185;BME280;19550;42.872;25.494;2023-02-10T12:46:32;98092.81;;;1.59;75.02
33185;BME280;19550;42.872;25.494;2023-02-10T12:49:33;98102.44;;;1.37;77.15
33185;BME280;19550;42.872;25.494;2023-02-10T12:52:06;98098.47;;;1.33;76.35
33185;BME280;19550;42.872;25.494;2023-02-10T12:54:41;98095.13;;;1.31;77.28
33185;BME280;19550;42.872;25.494;2023-02-10T12:57:14;98093.88;;;1.27;76.11
33185;BME280;19550;42.872;25.494;2023-02-10T12:59:51;98101.88;;;1.22;77.79
33185;BME280;19550;42.872;25.494;2023-02-10T13:02:23;98099.44;;;1.07;77.20
33185;BME280;19550;42.872;25.494;2023-02-10T13:04:55;98098.44;;;1.01;76.75